sensor_id;sensor_type;location;lat;lon;timestamp;P1;durP1;ratioP1;P2;durP2;ratioP2
9438;SDS011;5176;42.622;25.386;2022-10-16T00:00:04;10.10;;;8.80;;
9438;SDS011;5176;42.622;25.386;2022-10-16T00:02:33;9.07;;;8.03;;
9438;SDS011;5176;42.622;25.386;2022-10-16T00:05:02;9.47;;;8.30;;
9438;SDS011;5176;42.622;25.386;2022-10-16T00:07:31;9.20;;;8.17;;
9438;SDS011;5176;42.622;25.386;2022-10-16T00:10:00;10.70;;;8.70;;
9438;SDS011;5176;42.622;25.386;2022-10-16T00:12:29;9.50;;;8.50;;
9438;SDS011;5176;42.622;25.386;2022-10-16T00:14:58;14.00;;;9.07;;
9438;SDS011;5176;42.622;25.386;2022-10-16T00:17:28;11.33;;;8.70;;
9438;SDS011;5176;42.622;25.386;2022-10-16T00:19:57;11.97;;;9.03;;
9438;SDS011;5176;42.622;25.386;2022-10-16T00:22:26;12.13;;;8.70;;
9438;SDS011;5176;42.622;25.386;2022-10-16T00:24:55;10.77;;;8.90;;
9438;SDS011;5176;42.622;25.386;2022-10-16T00:27:24;8.77;;;7.97;;
9438;SDS011;5176;42.622;25.386;2022-10-16T00:29:52;11.10;;;8.43;;
9438;SDS011;5176;42.622;25.386;2022-10-16T00:32:21;9.60;;;8.50;;
9438;SDS011;5176;42.622;25.386;2022-10-16T00:34:51;9.80;;;8.80;;
9438;SDS011;5176;42.622;25.386;2022-10-16T00:37:20;9.83;;;8.83;;
9438;SDS011;5176;42.622;25.386;2022-10-16T00:39:49;10.00;;;8.23;;
9438;SDS011;5176;42.622;25.386;2022-10-16T00:42:18;11.10;;;9.60;;
9438;SDS011;5176;42.622;25.386;2022-10-16T00:44:48;10.63;;;8.60;;
9438;SDS011;5176;42.622;25.386;2022-10-16T00:47:19;10.40;;;8.47;;
9438;SDS011;5176;42.622;25.386;2022-10-16T00:49:55;9.83;;;8.83;;
9438;SDS011;5176;42.622;25.386;2022-10-16T00:52:27;9.17;;;7.70;;
9438;SDS011;5176;42.622;25.386;2022-10-16T00:54:57;13.43;;;8.77;;
9438;SDS011;5176;42.622;25.386;2022-10-16T00:57:28;9.07;;;8.17;;
9438;SDS011;5176;42.622;25.386;2022-10-16T00:59:56;8.70;;;7.80;;
9438;SDS011;5176;42.622;25.386;2022-10-16T01:02:25;10.20;;;7.43;;
9438;SDS011;5176;42.622;25.386;2022-10-16T01:04:55;8.73;;;7.93;;
9438;SDS011;5176;42.622;25.386;2022-10-16T01:07:29;8.07;;;7.27;;
9438;SDS011;5176;42.622;25.386;2022-10-16T01:10:07;8.73;;;7.83;;
9438;SDS011;5176;42.622;25.386;2022-10-16T01:12:45;8.77;;;7.87;;
9438;SDS011;5176;42.622;25.386;2022-10-16T01:15:19;9.00;;;8.10;;
9438;SDS011;5176;42.622;25.386;2022-10-16T01:17:56;8.67;;;7.87;;
9438;SDS011;5176;42.622;25.386;2022-10-16T01:20:31;9.00;;;8.10;;
9438;SDS011;5176;42.622;25.386;2022-10-16T01:23:06;8.87;;;8.03;;
9438;SDS011;5176;42.622;25.386;2022-10-16T01:25:56;12.37;;;8.10;;
9438;SDS011;5176;42.622;25.386;2022-10-16T01:28:38;10.93;;;8.27;;
9438;SDS011;5176;42.622;25.386;2022-10-16T01:31:10;12.37;;;10.17;;
9438;SDS011;5176;42.622;25.386;2022-10-16T01:33:45;11.77;;;10.17;;
9438;SDS011;5176;42.622;25.386;2022-10-16T01:36:21;9.60;;;8.47;;
9438;SDS011;5176;42.622;25.386;2022-10-16T01:38:54;9.60;;;8.63;;
9438;SDS011;5176;42.622;25.386;2022-10-16T01:41:30;9.57;;;8.57;;
9438;SDS011;5176;42.622;25.386;2022-10-16T01:44:04;10.70;;;8.63;;
9438;SDS011;5176;42.622;25.386;2022-10-16T01:46:36;9.83;;;7.70;;
9438;SDS011;5176;42.622;25.386;2022-10-16T01:49:07;9.80;;;8.37;;
9438;SDS011;5176;42.622;25.386;2022-10-16T01:51:38;8.57;;;7.80;;
9438;SDS011;5176;42.622;25.386;2022-10-16T01:54:07;12.67;;;8.47;;
9438;SDS011;5176;42.622;25.386;2022-10-16T01:56:37;8.57;;;7.67;;
9438;SDS011;5176;42.622;25.386;2022-10-16T01:59:09;10.27;;;7.63;;
9438;SDS011;5176;42.622;25.386;2022-10-16T02:01:42;9.67;;;8.30;;
9438;SDS011;5176;42.622;25.386;2022-10-16T02:04:15;8.47;;;7.67;;
9438;SDS011;5176;42.622;25.386;2022-10-16T02:06:48;7.83;;;7.13;;
9438;SDS011;5176;42.622;25.386;2022-10-16T02:09:17;10.03;;;8.73;;
9438;SDS011;5176;42.622;25.386;2022-10-16T02:11:46;10.47;;;9.13;;
9438;SDS011;5176;42.622;25.386;2022-10-16T02:14:17;13.20;;;9.80;;
9438;SDS011;5176;42.622;25.386;2022-10-16T02:16:46;12.17;;;9.23;;
9438;SDS011;5176;42.622;25.386;2022-10-16T02:19:15;10.13;;;9.13;;
9438;SDS011;5176;42.622;25.386;2022-10-16T02:21:48;8.80;;;7.83;;
9438;SDS011;5176;42.622;25.386;2022-10-16T02:24:24;9.77;;;8.77;;
9438;SDS011;5176;42.622;25.386;2022-10-16T02:27:00;15.63;;;8.80;;
9438;SDS011;5176;42.622;25.386;2022-10-16T02:29:37;8.70;;;7.90;;
9438;SDS011;5176;42.622;25.386;2022-10-16T02:32:11;9.33;;;8.30;;
9438;SDS011;5176;42.622;25.386;2022-10-16T02:34:43;9.13;;;8.30;;
9438;SDS011;5176;42.622;25.386;2022-10-16T02:37:13;10.47;;;8.53;;
9438;SDS011;5176;42.622;25.386;2022-10-16T02:39:42;9.70;;;8.57;;
9438;SDS011;5176;42.622;25.386;2022-10-16T02:42:11;11.93;;;9.43;;
9438;SDS011;5176;42.622;25.386;2022-10-16T02:44:42;10.57;;;8.60;;
9438;SDS011;5176;42.622;25.386;2022-10-16T02:47:11;10.07;;;9.13;;
9438;SDS011;5176;42.622;25.386;2022-10-16T02:49:40;12.53;;;9.43;;
9438;SDS011;5176;42.622;25.386;2022-10-16T02:52:08;11.27;;;9.27;;
9438;SDS011;5176;42.622;25.386;2022-10-16T02:54:37;8.93;;;8.03;;
9438;SDS011;5176;42.622;25.386;2022-10-16T02:57:06;9.87;;;8.87;;
9438;SDS011;5176;42.622;25.386;2022-10-16T02:59:34;9.77;;;8.77;;
9438;SDS011;5176;42.622;25.386;2022-10-16T03:02:05;12.13;;;8.73;;
9438;SDS011;5176;42.622;25.386;2022-10-16T03:04:34;15.33;;;9.60;;
9438;SDS011;5176;42.622;25.386;2022-10-16T03:07:03;10.20;;;9.20;;
9438;SDS011;5176;42.622;25.386;2022-10-16T03:09:32;14.00;;;8.90;;
9438;SDS011;5176;42.622;25.386;2022-10-16T03:12:01;9.97;;;8.97;;
9438;SDS011;5176;42.622;25.386;2022-10-16T03:14:30;10.73;;;8.90;;
9438;SDS011;5176;42.622;25.386;2022-10-16T03:16:59;9.87;;;8.87;;
9438;SDS011;5176;42.622;25.386;2022-10-16T03:19:29;11.83;;;9.13;;
9438;SDS011;5176;42.622;25.386;2022-10-16T03:21:58;10.07;;;9.00;;
9438;SDS011;5176;42.622;25.386;2022-10-16T03:24:27;11.13;;;9.30;;
9438;SDS011;5176;42.622;25.386;2022-10-16T03:26:56;9.77;;;8.77;;
9438;SDS011;5176;42.622;25.386;2022-10-16T03:29:25;9.83;;;8.83;;
9438;SDS011;5176;42.622;25.386;2022-10-16T03:31:56;13.00;;;10.33;;
9438;SDS011;5176;42.622;25.386;2022-10-16T03:34:24;11.93;;;10.63;;
9438;SDS011;5176;42.622;25.386;2022-10-16T03:36:55;14.13;;;10.77;;
9438;SDS011;5176;42.622;25.386;2022-10-16T03:39:23;13.37;;;10.77;;
9438;SDS011;5176;42.622;25.386;2022-10-16T03:41:52;13.70;;;11.23;;
9438;SDS011;5176;42.622;25.386;2022-10-16T03:44:21;10.37;;;9.20;;
9438;SDS011;5176;42.622;25.386;2022-10-16T03:46:50;10.40;;;9.23;;
9438;SDS011;5176;42.622;25.386;2022-10-16T03:49:18;12.87;;;9.80;;
9438;SDS011;5176;42.622;25.386;2022-10-16T03:51:47;9.37;;;8.33;;
9438;SDS011;5176;42.622;25.386;2022-10-16T03:54:17;11.67;;;9.10;;
9438;SDS011;5176;42.622;25.386;2022-10-16T03:56:46;12.50;;;8.87;;
9438;SDS011;5176;42.622;25.386;2022-10-16T03:59:14;10.97;;;8.13;;
9438;SDS011;5176;42.622;25.386;2022-10-16T04:01:43;11.33;;;8.73;;
9438;SDS011;5176;42.622;25.386;2022-10-16T04:04:12;9.43;;;8.53;;
9438;SDS011;5176;42.622;25.386;2022-10-16T04:06:40;10.23;;;8.23;;
9438;SDS011;5176;42.622;25.386;2022-10-16T04:09:09;9.00;;;8.03;;
9438;SDS011;5176;42.622;25.386;2022-10-16T04:11:39;11.23;;;8.10;;
9438;SDS011;5176;42.622;25.386;2022-10-16T04:14:08;9.40;;;8.43;;
9438;SDS011;5176;42.622;25.386;2022-10-16T04:16:37;8.87;;;7.60;;
9438;SDS011;5176;42.622;25.386;2022-10-16T04:19:05;10.93;;;8.70;;
9438;SDS011;5176;42.622;25.386;2022-10-16T04:21:34;10.23;;;9.17;;
9438;SDS011;5176;42.622;25.386;2022-10-16T04:24:03;13.40;;;9.43;;
9438;SDS011;5176;42.622;25.386;2022-10-16T04:26:32;11.47;;;8.77;;
9438;SDS011;5176;42.622;25.386;2022-10-16T04:29:02;9.77;;;8.50;;
9438;SDS011;5176;42.622;25.386;2022-10-16T04:31:31;10.17;;;9.07;;
9438;SDS011;5176;42.622;25.386;2022-10-16T04:34:00;10.23;;;8.40;;
9438;SDS011;5176;42.622;25.386;2022-10-16T04:36:29;9.50;;;8.60;;
9438;SDS011;5176;42.622;25.386;2022-10-16T04:38:57;9.07;;;8.17;;
9438;SDS011;5176;42.622;25.386;2022-10-16T04:41:26;9.70;;;8.37;;
9438;SDS011;5176;42.622;25.386;2022-10-16T04:43:55;11.17;;;8.63;;
9438;SDS011;5176;42.622;25.386;2022-10-16T04:46:25;11.17;;;9.20;;
9438;SDS011;5176;42.622;25.386;2022-10-16T04:48:53;14.20;;;11.63;;
9438;SDS011;5176;42.622;25.386;2022-10-16T04:51:22;14.37;;;10.23;;
9438;SDS011;5176;42.622;25.386;2022-10-16T04:53:52;9.60;;;8.57;;
9438;SDS011;5176;42.622;25.386;2022-10-16T04:56:20;9.83;;;8.37;;
9438;SDS011;5176;42.622;25.386;2022-10-16T04:58:49;9.20;;;8.30;;
9438;SDS011;5176;42.622;25.386;2022-10-16T05:01:18;11.40;;;7.57;;
9438;SDS011;5176;42.622;25.386;2022-10-16T05:03:48;8.07;;;7.30;;
9438;SDS011;5176;42.622;25.386;2022-10-16T05:06:16;8.67;;;7.80;;
9438;SDS011;5176;42.622;25.386;2022-10-16T05:08:45;10.97;;;8.80;;
9438;SDS011;5176;42.622;25.386;2022-10-16T05:11:14;9.97;;;7.57;;
9438;SDS011;5176;42.622;25.386;2022-10-16T05:13:42;14.00;;;8.37;;
9438;SDS011;5176;42.622;25.386;2022-10-16T05:16:11;10.00;;;9.00;;
9438;SDS011;5176;42.622;25.386;2022-10-16T05:18:39;11.87;;;9.97;;
9438;SDS011;5176;42.622;25.386;2022-10-16T05:21:09;10.17;;;9.17;;
9438;SDS011;5176;42.622;25.386;2022-10-16T05:23:38;11.23;;;9.77;;
9438;SDS011;5176;42.622;25.386;2022-10-16T05:26:07;12.20;;;9.90;;
9438;SDS011;5176;42.622;25.386;2022-10-16T05:28:36;10.80;;;9.63;;
9438;SDS011;5176;42.622;25.386;2022-10-16T05:31:05;13.73;;;9.90;;
9438;SDS011;5176;42.622;25.386;2022-10-16T05:33:35;11.60;;;10.27;;
9438;SDS011;5176;42.622;25.386;2022-10-16T05:36:04;13.37;;;11.13;;
9438;SDS011;5176;42.622;25.386;2022-10-16T05:38:36;14.70;;;10.50;;
9438;SDS011;5176;42.622;25.386;2022-10-16T05:41:05;11.33;;;10.23;;
9438;SDS011;5176;42.622;25.386;2022-10-16T05:43:34;15.17;;;9.90;;
9438;SDS011;5176;42.622;25.386;2022-10-16T05:46:03;11.40;;;10.20;;
9438;SDS011;5176;42.622;25.386;2022-10-16T05:48:33;10.67;;;9.67;;
9438;SDS011;5176;42.622;25.386;2022-10-16T05:51:03;11.03;;;9.93;;
9438;SDS011;5176;42.622;25.386;2022-10-16T05:53:34;11.10;;;9.80;;
9438;SDS011;5176;42.622;25.386;2022-10-16T05:56:05;10.33;;;9.23;;
9438;SDS011;5176;42.622;25.386;2022-10-16T05:58:36;10.50;;;9.50;;
9438;SDS011;5176;42.622;25.386;2022-10-16T06:01:07;11.00;;;9.03;;
9438;SDS011;5176;42.622;25.386;2022-10-16T06:03:38;9.80;;;8.87;;
9438;SDS011;5176;42.622;25.386;2022-10-16T06:06:08;9.70;;;8.70;;
9438;SDS011;5176;42.622;25.386;2022-10-16T06:08:39;11.23;;;9.20;;
9438;SDS011;5176;42.622;25.386;2022-10-16T06:11:08;14.27;;;9.07;;
9438;SDS011;5176;42.622;25.386;2022-10-16T06:13:40;10.13;;;8.57;;
9438;SDS011;5176;42.622;25.386;2022-10-16T06:16:09;11.23;;;8.00;;
9438;SDS011;5176;42.622;25.386;2022-10-16T06:18:38;10.83;;;8.57;;
9438;SDS011;5176;42.622;25.386;2022-10-16T06:21:07;8.70;;;7.80;;
9438;SDS011;5176;42.622;25.386;2022-10-16T06:23:38;7.73;;;6.93;;
9438;SDS011;5176;42.622;25.386;2022-10-16T06:26:08;9.90;;;8.00;;
9438;SDS011;5176;42.622;25.386;2022-10-16T06:28:39;9.80;;;7.53;;
9438;SDS011;5176;42.622;25.386;2022-10-16T06:31:08;8.80;;;8.00;;
9438;SDS011;5176;42.622;25.386;2022-10-16T06:33:38;7.77;;;6.97;;
9438;SDS011;5176;42.622;25.386;2022-10-16T06:36:08;8.30;;;7.50;;
9438;SDS011;5176;42.622;25.386;2022-10-16T06:38:40;9.10;;;8.20;;
9438;SDS011;5176;42.622;25.386;2022-10-16T06:41:10;11.20;;;8.33;;
9438;SDS011;5176;42.622;25.386;2022-10-16T06:43:40;9.73;;;7.90;;
9438;SDS011;5176;42.622;25.386;2022-10-16T06:46:11;9.77;;;8.17;;
9438;SDS011;5176;42.622;25.386;2022-10-16T06:48:41;8.63;;;7.70;;
9438;SDS011;5176;42.622;25.386;2022-10-16T06:51:11;8.83;;;7.93;;
9438;SDS011;5176;42.622;25.386;2022-10-16T06:53:43;9.60;;;8.53;;
9438;SDS011;5176;42.622;25.386;2022-10-16T06:56:13;8.83;;;7.90;;
9438;SDS011;5176;42.622;25.386;2022-10-16T06:58:43;8.43;;;7.53;;
9438;SDS011;5176;42.622;25.386;2022-10-16T07:01:13;8.10;;;7.30;;
9438;SDS011;5176;42.622;25.386;2022-10-16T07:03:42;9.90;;;7.60;;
9438;SDS011;5176;42.622;25.386;2022-10-16T07:06:13;7.87;;;7.07;;
9438;SDS011;5176;42.622;25.386;2022-10-16T07:08:45;7.77;;;7.07;;
9438;SDS011;5176;42.622;25.386;2022-10-16T07:11:15;7.40;;;6.30;;
9438;SDS011;5176;42.622;25.386;2022-10-16T07:13:45;7.47;;;6.73;;
9438;SDS011;5176;42.622;25.386;2022-10-16T07:16:16;7.90;;;6.90;;
9438;SDS011;5176;42.622;25.386;2022-10-16T07:18:46;8.77;;;6.97;;
9438;SDS011;5176;42.622;25.386;2022-10-16T07:21:16;7.50;;;6.80;;
9438;SDS011;5176;42.622;25.386;2022-10-16T07:23:49;8.50;;;6.23;;
9438;SDS011;5176;42.622;25.386;2022-10-16T07:26:18;8.57;;;6.70;;
9438;SDS011;5176;42.622;25.386;2022-10-16T07:28:47;8.00;;;6.77;;
9438;SDS011;5176;42.622;25.386;2022-10-16T07:31:17;7.33;;;6.53;;
9438;SDS011;5176;42.622;25.386;2022-10-16T07:33:47;7.67;;;6.87;;
9438;SDS011;5176;42.622;25.386;2022-10-16T07:36:17;7.10;;;6.37;;
9438;SDS011;5176;42.622;25.386;2022-10-16T07:38:48;11.73;;;7.43;;
9438;SDS011;5176;42.622;25.386;2022-10-16T07:41:17;7.87;;;7.17;;
9438;SDS011;5176;42.622;25.386;2022-10-16T07:43:47;8.43;;;7.70;;
9438;SDS011;5176;42.622;25.386;2022-10-16T07:46:16;7.77;;;6.50;;
9438;SDS011;5176;42.622;25.386;2022-10-16T07:48:46;7.83;;;7.07;;
9438;SDS011;5176;42.622;25.386;2022-10-16T07:51:15;8.10;;;7.30;;
9438;SDS011;5176;42.622;25.386;2022-10-16T07:53:44;9.50;;;8.23;;
9438;SDS011;5176;42.622;25.386;2022-10-16T07:56:16;10.23;;;7.80;;
9438;SDS011;5176;42.622;25.386;2022-10-16T07:58:46;9.63;;;8.65;;
9438;SDS011;5176;42.622;25.386;2022-10-16T08:01:16;9.98;;;8.93;;
9438;SDS011;5176;42.622;25.386;2022-10-16T08:03:46;11.30;;;9.02;;
9438;SDS011;5176;42.622;25.386;2022-10-16T08:06:16;13.45;;;9.27;;
9438;SDS011;5176;42.622;25.386;2022-10-16T08:08:48;11.25;;;9.70;;
9438;SDS011;5176;42.622;25.386;2022-10-16T08:11:17;13.75;;;10.75;;
9438;SDS011;5176;42.622;25.386;2022-10-16T08:13:46;13.95;;;11.65;;
9438;SDS011;5176;42.622;25.386;2022-10-16T08:16:14;14.75;;;10.98;;
9438;SDS011;5176;42.622;25.386;2022-10-16T08:18:43;11.57;;;10.38;;
9438;SDS011;5176;42.622;25.386;2022-10-16T08:21:13;12.10;;;10.38;;
9438;SDS011;5176;42.622;25.386;2022-10-16T08:23:44;11.35;;;8.82;;
9438;SDS011;5176;42.622;25.386;2022-10-16T08:26:14;11.50;;;10.32;;
9438;SDS011;5176;42.622;25.386;2022-10-16T08:28:43;12.55;;;9.13;;
9438;SDS011;5176;42.622;25.386;2022-10-16T08:31:12;14.98;;;9.65;;
9438;SDS011;5176;42.622;25.386;2022-10-16T08:33:43;10.05;;;9.13;;
9438;SDS011;5176;42.622;25.386;2022-10-16T08:36:13;11.77;;;9.65;;
9438;SDS011;5176;42.622;25.386;2022-10-16T08:38:43;10.25;;;9.20;;
9438;SDS011;5176;42.622;25.386;2022-10-16T08:41:20;10.68;;;9.57;;
9438;SDS011;5176;42.622;25.386;2022-10-16T08:44:07;10.80;;;8.88;;
9438;SDS011;5176;42.622;25.386;2022-10-16T08:46:56;9.10;;;8.30;;
9438;SDS011;5176;42.622;25.386;2022-10-16T08:49:33;8.63;;;7.82;;
9438;SDS011;5176;42.622;25.386;2022-10-16T08:52:03;9.00;;;8.10;;
9438;SDS011;5176;42.622;25.386;2022-10-16T08:54:32;8.65;;;7.80;;
9438;SDS011;5176;42.622;25.386;2022-10-16T08:57:09;9.82;;;8.13;;
9438;SDS011;5176;42.622;25.386;2022-10-16T08:59:39;9.48;;;7.90;;
9438;SDS011;5176;42.622;25.386;2022-10-16T09:02:16;9.70;;;8.70;;
9438;SDS011;5176;42.622;25.386;2022-10-16T09:08:01;10.07;;;8.73;;
9438;SDS011;5176;42.622;25.386;2022-10-16T09:10:43;8.10;;;7.35;;
9438;SDS011;5176;42.622;25.386;2022-10-16T09:13:21;8.98;;;7.70;;
9438;SDS011;5176;42.622;25.386;2022-10-16T09:16:10;9.55;;;7.32;;
9438;SDS011;5176;42.622;25.386;2022-10-16T09:18:48;7.07;;;6.47;;
9438;SDS011;5176;42.622;25.386;2022-10-16T09:21:24;8.25;;;7.55;;
9438;SDS011;5176;42.622;25.386;2022-10-16T09:23:57;8.20;;;7.40;;
9438;SDS011;5176;42.622;25.386;2022-10-16T09:26:34;8.98;;;7.70;;
9438;SDS011;5176;42.622;25.386;2022-10-16T09:29:04;8.48;;;6.93;;
9438;SDS011;5176;42.622;25.386;2022-10-16T09:31:33;11.30;;;7.40;;
9438;SDS011;5176;42.622;25.386;2022-10-16T09:34:05;7.40;;;6.70;;
9438;SDS011;5176;42.622;25.386;2022-10-16T09:36:45;8.25;;;7.28;;
9438;SDS011;5176;42.622;25.386;2022-10-16T09:39:14;9.57;;;8.25;;
9438;SDS011;5176;42.622;25.386;2022-10-16T09:41:43;10.23;;;8.30;;
9438;SDS011;5176;42.622;25.386;2022-10-16T09:44:17;9.38;;;7.57;;
9438;SDS011;5176;42.622;25.386;2022-10-16T09:47:00;8.68;;;7.25;;
9438;SDS011;5176;42.622;25.386;2022-10-16T09:49:30;9.70;;;6.93;;
9438;SDS011;5176;42.622;25.386;2022-10-16T09:52:04;11.82;;;7.88;;
9438;SDS011;5176;42.622;25.386;2022-10-16T09:54:33;8.23;;;7.20;;
9438;SDS011;5176;42.622;25.386;2022-10-16T09:57:04;9.88;;;6.82;;
9438;SDS011;5176;42.622;25.386;2022-10-16T09:59:45;8.15;;;7.35;;
9438;SDS011;5176;42.622;25.386;2022-10-16T10:02:15;9.50;;;6.78;;
9438;SDS011;5176;42.622;25.386;2022-10-16T10:04:48;9.93;;;7.40;;
9438;SDS011;5176;42.622;25.386;2022-10-16T10:07:23;8.00;;;7.28;;
9438;SDS011;5176;42.622;25.386;2022-10-16T10:09:53;7.00;;;6.30;;
9438;SDS011;5176;42.622;25.386;2022-10-16T10:12:23;7.90;;;7.10;;
9438;SDS011;5176;42.622;25.386;2022-10-16T10:14:54;7.10;;;6.32;;
9438;SDS011;5176;42.622;25.386;2022-10-16T10:17:24;7.15;;;6.00;;
9438;SDS011;5176;42.622;25.386;2022-10-16T10:19:55;7.40;;;6.65;;
9438;SDS011;5176;42.622;25.386;2022-10-16T10:22:30;7.38;;;6.30;;
9438;SDS011;5176;42.622;25.386;2022-10-16T10:28:06;7.35;;;6.65;;
9438;SDS011;5176;42.622;25.386;2022-10-16T10:30:48;10.93;;;6.40;;
9438;SDS011;5176;42.622;25.386;2022-10-16T10:33:25;7.10;;;6.47;;
9438;SDS011;5176;42.622;25.386;2022-10-16T10:36:02;7.18;;;6.47;;
9438;SDS011;5176;42.622;25.386;2022-10-16T10:38:43;6.95;;;6.35;;
9438;SDS011;5176;42.622;25.386;2022-10-16T10:41:22;7.13;;;6.43;;
9438;SDS011;5176;42.622;25.386;2022-10-16T10:44:07;9.70;;;6.55;;
9438;SDS011;5176;42.622;25.386;2022-10-16T10:46:47;7.20;;;6.50;;
9438;SDS011;5176;42.622;25.386;2022-10-16T10:49:25;6.78;;;6.18;;
9438;SDS011;5176;42.622;25.386;2022-10-16T10:52:12;7.30;;;6.38;;
9438;SDS011;5176;42.622;25.386;2022-10-16T10:54:59;13.38;;;11.98;;
9438;SDS011;5176;42.622;25.386;2022-10-16T10:57:32;16.88;;;12.63;;
9438;SDS011;5176;42.622;25.386;2022-10-16T11:00:13;8.88;;;7.05;;
9438;SDS011;5176;42.622;25.386;2022-10-16T11:02:53;7.70;;;6.22;;
9438;SDS011;5176;42.622;25.386;2022-10-16T11:05:34;8.35;;;6.38;;
9438;SDS011;5176;42.622;25.386;2022-10-16T11:08:10;9.13;;;6.43;;
9438;SDS011;5176;42.622;25.386;2022-10-16T11:10:46;6.85;;;6.25;;
9438;SDS011;5176;42.622;25.386;2022-10-16T11:13:23;6.90;;;5.85;;
9438;SDS011;5176;42.622;25.386;2022-10-16T11:15:58;8.45;;;6.97;;
9438;SDS011;5176;42.622;25.386;2022-10-16T11:18:32;10.38;;;6.68;;
9438;SDS011;5176;42.622;25.386;2022-10-16T11:21:10;7.13;;;6.28;;
9438;SDS011;5176;42.622;25.386;2022-10-16T11:23:42;7.85;;;5.90;;
9438;SDS011;5176;42.622;25.386;2022-10-16T11:26:18;7.32;;;6.63;;
9438;SDS011;5176;42.622;25.386;2022-10-16T11:28:50;7.22;;;6.53;;
9438;SDS011;5176;42.622;25.386;2022-10-16T11:31:24;8.57;;;6.80;;
9438;SDS011;5176;42.622;25.386;2022-10-16T11:34:02;8.85;;;6.68;;
9438;SDS011;5176;42.622;25.386;2022-10-16T11:36:42;6.80;;;6.10;;
9438;SDS011;5176;42.622;25.386;2022-10-16T11:39:19;7.57;;;6.78;;
9438;SDS011;5176;42.622;25.386;2022-10-16T11:41:50;7.22;;;6.50;;
9438;SDS011;5176;42.622;25.386;2022-10-16T11:44:24;6.60;;;6.00;;
9438;SDS011;5176;42.622;25.386;2022-10-16T11:47:06;6.65;;;6.05;;
9438;SDS011;5176;42.622;25.386;2022-10-16T11:49:42;6.90;;;6.13;;
9438;SDS011;5176;42.622;25.386;2022-10-16T11:52:15;7.18;;;6.47;;
9438;SDS011;5176;42.622;25.386;2022-10-16T11:54:49;6.75;;;5.25;;
9438;SDS011;5176;42.622;25.386;2022-10-16T11:57:23;5.40;;;4.82;;
9438;SDS011;5176;42.622;25.386;2022-10-16T11:59:57;5.85;;;4.43;;
9438;SDS011;5176;42.622;25.386;2022-10-16T12:02:32;5.30;;;4.72;;
9438;SDS011;5176;42.622;25.386;2022-10-16T12:05:18;5.30;;;3.80;;
9438;SDS011;5176;42.622;25.386;2022-10-16T12:07:54;6.60;;;4.20;;
9438;SDS011;5176;42.622;25.386;2022-10-16T12:10:31;4.07;;;3.67;;
9438;SDS011;5176;42.622;25.386;2022-10-16T12:13:03;3.50;;;3.20;;
9438;SDS011;5176;42.622;25.386;2022-10-16T12:15:33;3.50;;;3.20;;
9438;SDS011;5176;42.622;25.386;2022-10-16T12:18:02;4.50;;;4.10;;
9438;SDS011;5176;42.622;25.386;2022-10-16T12:20:32;5.78;;;4.78;;
9438;SDS011;5176;42.622;25.386;2022-10-16T12:23:04;7.70;;;4.35;;
9438;SDS011;5176;42.622;25.386;2022-10-16T12:25:34;6.65;;;5.82;;
9438;SDS011;5176;42.622;25.386;2022-10-16T12:28:19;5.88;;;5.35;;
9438;SDS011;5176;42.622;25.386;2022-10-16T12:30:52;8.40;;;5.50;;
9438;SDS011;5176;42.622;25.386;2022-10-16T12:33:23;8.52;;;5.70;;
9438;SDS011;5176;42.622;25.386;2022-10-16T12:35:55;11.50;;;5.70;;
9438;SDS011;5176;42.622;25.386;2022-10-16T12:38:26;7.15;;;5.22;;
9438;SDS011;5176;42.622;25.386;2022-10-16T12:40:59;7.88;;;5.28;;
9438;SDS011;5176;42.622;25.386;2022-10-16T12:43:36;34.53;;;7.50;;
9438;SDS011;5176;42.622;25.386;2022-10-16T12:49:19;9.45;;;4.72;;
9438;SDS011;5176;42.622;25.386;2022-10-16T12:51:54;6.00;;;4.95;;
9438;SDS011;5176;42.622;25.386;2022-10-16T12:54:25;19.48;;;6.15;;
9438;SDS011;5176;42.622;25.386;2022-10-16T12:57:04;51.72;;;9.93;;
9438;SDS011;5176;42.622;25.386;2022-10-16T12:59:43;15.43;;;5.43;;
9438;SDS011;5176;42.622;25.386;2022-10-16T13:02:22;5.63;;;4.78;;
9438;SDS011;5176;42.622;25.386;2022-10-16T13:05:21;24.15;;;5.88;;
9438;SDS011;5176;42.622;25.386;2022-10-16T13:08:09;111.55;;;14.15;;
9438;SDS011;5176;42.622;25.386;2022-10-16T13:10:52;6.05;;;4.00;;
9438;SDS011;5176;42.622;25.386;2022-10-16T13:13:40;5.63;;;3.20;;
9438;SDS011;5176;42.622;25.386;2022-10-16T13:16:33;13.35;;;3.53;;
9438;SDS011;5176;42.622;25.386;2022-10-16T13:19:12;7.53;;;3.47;;
9438;SDS011;5176;42.622;25.386;2022-10-16T13:21:50;3.20;;;2.85;;
9438;SDS011;5176;42.622;25.386;2022-10-16T13:24:28;3.88;;;2.90;;
9438;SDS011;5176;42.622;25.386;2022-10-16T13:27:13;7.18;;;3.55;;
9438;SDS011;5176;42.622;25.386;2022-10-16T13:29:52;4.20;;;3.08;;
9438;SDS011;5176;42.622;25.386;2022-10-16T13:32:27;5.05;;;3.60;;
9438;SDS011;5176;42.622;25.386;2022-10-16T13:34:57;5.95;;;3.40;;
9438;SDS011;5176;42.622;25.386;2022-10-16T13:37:27;5.03;;;3.10;;
9438;SDS011;5176;42.622;25.386;2022-10-16T13:40:04;3.50;;;3.20;;
9438;SDS011;5176;42.622;25.386;2022-10-16T13:42:46;5.38;;;3.47;;
9438;SDS011;5176;42.622;25.386;2022-10-16T13:45:17;4.93;;;3.53;;
9438;SDS011;5176;42.622;25.386;2022-10-16T13:47:48;3.53;;;3.22;;
9438;SDS011;5176;42.622;25.386;2022-10-16T13:50:17;7.25;;;3.70;;
9438;SDS011;5176;42.622;25.386;2022-10-16T13:52:46;5.60;;;3.72;;
9438;SDS011;5176;42.622;25.386;2022-10-16T13:55:17;5.55;;;3.60;;
9438;SDS011;5176;42.622;25.386;2022-10-16T13:57:46;3.65;;;3.35;;
9438;SDS011;5176;42.622;25.386;2022-10-16T14:00:18;5.13;;;3.42;;
9438;SDS011;5176;42.622;25.386;2022-10-16T14:02:51;4.65;;;3.35;;
9438;SDS011;5176;42.622;25.386;2022-10-16T14:05:25;4.30;;;3.65;;
9438;SDS011;5176;42.622;25.386;2022-10-16T14:07:54;7.30;;;4.28;;
9438;SDS011;5176;42.622;25.386;2022-10-16T14:10:27;6.10;;;5.00;;
9438;SDS011;5176;42.622;25.386;2022-10-16T14:12:58;7.38;;;4.85;;
9438;SDS011;5176;42.622;25.386;2022-10-16T14:15:29;5.88;;;4.10;;
9438;SDS011;5176;42.622;25.386;2022-10-16T14:18:00;5.55;;;3.72;;
9438;SDS011;5176;42.622;25.386;2022-10-16T14:20:29;4.40;;;4.00;;
9438;SDS011;5176;42.622;25.386;2022-10-16T14:23:01;3.78;;;3.30;;
9438;SDS011;5176;42.622;25.386;2022-10-16T14:25:33;3.63;;;3.33;;
9438;SDS011;5176;42.622;25.386;2022-10-16T14:28:03;6.70;;;3.60;;
9438;SDS011;5176;42.622;25.386;2022-10-16T14:30:49;4.72;;;3.38;;
9438;SDS011;5176;42.622;25.386;2022-10-16T14:33:20;4.22;;;3.83;;
9438;SDS011;5176;42.622;25.386;2022-10-16T14:36:00;5.40;;;3.63;;
9438;SDS011;5176;42.622;25.386;2022-10-16T14:38:31;4.22;;;3.83;;
9438;SDS011;5176;42.622;25.386;2022-10-16T14:41:03;5.18;;;3.80;;
9438;SDS011;5176;42.622;25.386;2022-10-16T14:43:33;5.07;;;4.17;;
9438;SDS011;5176;42.622;25.386;2022-10-16T14:46:06;6.40;;;4.47;;
9438;SDS011;5176;42.622;25.386;2022-10-16T14:48:40;4.67;;;4.13;;
9438;SDS011;5176;42.622;25.386;2022-10-16T14:51:12;4.55;;;4.15;;
9438;SDS011;5176;42.622;25.386;2022-10-16T14:53:42;5.95;;;4.50;;
9438;SDS011;5176;42.622;25.386;2022-10-16T14:56:16;5.88;;;3.97;;
9438;SDS011;5176;42.622;25.386;2022-10-16T14:58:47;3.90;;;3.60;;
9438;SDS011;5176;42.622;25.386;2022-10-16T15:01:18;7.65;;;4.32;;
9438;SDS011;5176;42.622;25.386;2022-10-16T15:03:48;5.60;;;4.20;;
9438;SDS011;5176;42.622;25.386;2022-10-16T15:06:18;5.00;;;4.03;;
9438;SDS011;5176;42.622;25.386;2022-10-16T15:08:47;5.80;;;3.90;;
9438;SDS011;5176;42.622;25.386;2022-10-16T15:11:18;4.67;;;4.27;;
9438;SDS011;5176;42.622;25.386;2022-10-16T15:13:47;7.40;;;5.15;;
9438;SDS011;5176;42.622;25.386;2022-10-16T15:16:16;5.77;;;4.60;;
9438;SDS011;5176;42.622;25.386;2022-10-16T15:18:45;6.80;;;6.03;;
9438;SDS011;5176;42.622;25.386;2022-10-16T15:21:17;8.53;;;7.43;;
9438;SDS011;5176;42.622;25.386;2022-10-16T15:23:52;11.63;;;9.17;;
9438;SDS011;5176;42.622;25.386;2022-10-16T15:26:24;11.40;;;9.47;;
9438;SDS011;5176;42.622;25.386;2022-10-16T15:28:54;15.98;;;12.85;;
9438;SDS011;5176;42.622;25.386;2022-10-16T15:31:23;7.53;;;6.73;;
9438;SDS011;5176;42.622;25.386;2022-10-16T15:33:52;6.97;;;5.10;;